sensor_id;sensor_type;location;lat;lon;timestamp;pressure;altitude;pressure_sealevel;temperature;humidity
8320;BME280;4197;42.130;24.746;2023-08-01T00:01:25;98992.34;;;23.50;85.39
8320;BME280;4197;42.130;24.746;2023-08-01T00:03:56;98985.56;;;23.51;83.34
8320;BME280;4197;42.130;24.746;2023-08-01T00:06:24;98984.03;;;23.50;82.60
8320;BME280;4197;42.130;24.746;2023-08-01T00:08:52;98990.47;;;23.47;82.82
8320;BME280;4197;42.130;24.746;2023-08-01T00:11:21;98994.13;;;23.44;83.11
8320;BME280;4197;42.130;24.746;2023-08-01T00:13:49;98974.31;;;23.46;80.67
8320;BME280;4197;42.130;24.746;2023-08-01T00:16:17;98975.38;;;23.39;81.46
8320;BME280;4197;42.130;24.746;2023-08-01T00:18:45;98971.31;;;23.31;82.07
8320;BME280;4197;42.130;24.746;2023-08-01T00:21:15;98974.69;;;23.26;82.50
8320;BME280;4197;42.130;24.746;2023-08-01T00:23:43;98973.78;;;23.29;81.98
8320;BME280;4197;42.130;24.746;2023-08-01T00:26:11;98972.81;;;23.23;82.87
8320;BME280;4197;42.130;24.746;2023-08-01T00:28:40;98971.19;;;23.12;83.44
8320;BME280;4197;42.130;24.746;2023-08-01T00:31:08;98967.09;;;23.17;82.75
8320;BME280;4197;42.130;24.746;2023-08-01T00:33:37;98973.25;;;23.21;81.95
8320;BME280;4197;42.130;24.746;2023-08-01T00:36:25;98966.31;;;23.16;83.07
8320;BME280;4197;42.130;24.746;2023-08-01T00:38:53;98962.56;;;23.10;82.49
8320;BME280;4197;42.130;24.746;2023-08-01T00:41:21;98955.25;;;23.16;82.20
8320;BME280;4197;42.130;24.746;2023-08-01T00:43:49;98956.47;;;23.15;81.77
8320;BME280;4197;42.130;24.746;2023-08-01T00:46:18;98957.38;;;23.12;81.73
8320;BME280;4197;42.130;24.746;2023-08-01T00:48:46;98955.50;;;23.09;82.08
8320;BME280;4197;42.130;24.746;2023-08-01T00:51:15;98952.69;;;23.00;82.23
8320;BME280;4197;42.130;24.746;2023-08-01T00:53:46;98945.59;;;22.99;82.51
8320;BME280;4197;42.130;24.746;2023-08-01T00:56:14;98946.84;;;22.98;82.42
8320;BME280;4197;42.130;24.746;2023-08-01T00:58:42;98940.63;;;22.94;82.20
8320;BME280;4197;42.130;24.746;2023-08-01T01:01:11;98939.53;;;22.91;82.43
8320;BME280;4197;42.130;24.746;2023-08-01T01:03:40;98933.38;;;22.87;82.56
8320;BME280;4197;42.130;24.746;2023-08-01T01:06:13;98924.31;;;22.87;82.24
8320;BME280;4197;42.130;24.746;2023-08-01T01:08:45;98930.78;;;22.93;81.02
8320;BME280;4197;42.130;24.746;2023-08-01T01:11:13;98926.75;;;22.85;81.46
8320;BME280;4197;42.130;24.746;2023-08-01T01:13:42;98921.16;;;22.76;82.59
8320;BME280;4197;42.130;24.746;2023-08-01T01:16:10;98919.09;;;22.67;83.91
8320;BME280;4197;42.130;24.746;2023-08-01T01:18:38;98912.28;;;22.59;84.44
8320;BME280;4197;42.130;24.746;2023-08-01T01:21:08;98913.63;;;22.54;85.09
8320;BME280;4197;42.130;24.746;2023-08-01T01:23:52;98903.47;;;22.51;85.71
8320;BME280;4197;42.130;24.746;2023-08-01T01:26:20;98906.66;;;22.49;85.71
8320;BME280;4197;42.130;24.746;2023-08-01T01:28:50;98901.28;;;22.46;86.18
8320;BME280;4197;42.130;24.746;2023-08-01T01:31:19;98895.09;;;22.42;86.36
8320;BME280;4197;42.130;24.746;2023-08-01T01:33:48;98891.13;;;22.43;86.35
8320;BME280;4197;42.130;24.746;2023-08-01T01:36:18;98887.25;;;22.40;86.22
8320;BME280;4197;42.130;24.746;2023-08-01T01:38:46;98891.69;;;22.38;86.29
8320;BME280;4197;42.130;24.746;2023-08-01T01:41:15;98897.78;;;22.33;86.50
8320;BME280;4197;42.130;24.746;2023-08-01T01:43:43;98894.38;;;22.29;86.62
8320;BME280;4197;42.130;24.746;2023-08-01T01:46:11;98891.28;;;22.26;87.36
8320;BME280;4197;42.130;24.746;2023-08-01T01:48:40;98887.84;;;22.22;87.76
8320;BME280;4197;42.130;24.746;2023-08-01T01:51:09;98892.31;;;22.20;88.06
8320;BME280;4197;42.130;24.746;2023-08-01T01:53:38;98895.06;;;22.20;87.58
8320;BME280;4197;42.130;24.746;2023-08-01T01:56:07;98884.78;;;22.20;87.47
8320;BME280;4197;42.130;24.746;2023-08-01T01:58:35;98893.84;;;22.21;86.55
8320;BME280;4197;42.130;24.746;2023-08-01T02:01:03;98897.69;;;22.23;85.89
8320;BME280;4197;42.130;24.746;2023-08-01T02:03:33;98900.13;;;22.21;85.61
8320;BME280;4197;42.130;24.746;2023-08-01T02:06:01;98895.72;;;22.24;85.52
8320;BME280;4197;42.130;24.746;2023-08-01T02:08:29;98901.66;;;22.22;85.08
8320;BME280;4197;42.130;24.746;2023-08-01T02:10:59;98891.50;;;22.19;85.23
8320;BME280;4197;42.130;24.746;2023-08-01T02:13:29;98908.41;;;22.21;85.47
8320;BME280;4197;42.130;24.746;2023-08-01T02:16:01;98899.03;;;22.19;84.75
8320;BME280;4197;42.130;24.746;2023-08-01T02:18:29;98905.31;;;22.19;83.69
8320;BME280;4197;42.130;24.746;2023-08-01T02:20:57;98908.41;;;22.21;83.07
8320;BME280;4197;42.130;24.746;2023-08-01T02:23:26;98912.25;;;22.11;83.50
8320;BME280;4197;42.130;24.746;2023-08-01T02:25:54;98915.69;;;22.15;81.77
8320;BME280;4197;42.130;24.746;2023-08-01T02:28:24;98922.44;;;22.14;81.40
8320;BME280;4197;42.130;24.746;2023-08-01T02:30:52;98926.41;;;22.13;81.36
8320;BME280;4197;42.130;24.746;2023-08-01T02:33:20;98920.56;;;22.11;81.86
8320;BME280;4197;42.130;24.746;2023-08-01T02:35:49;98920.69;;;22.08;82.23
8320;BME280;4197;42.130;24.746;2023-08-01T02:38:17;98921.91;;;22.07;82.52
8320;BME280;4197;42.130;24.746;2023-08-01T02:40:45;98922.00;;;22.03;83.40
8320;BME280;4197;42.130;24.746;2023-08-01T02:43:13;98924.53;;;22.10;83.68
8320;BME280;4197;42.130;24.746;2023-08-01T02:45:43;98923.13;;;22.18;83.43
8320;BME280;4197;42.130;24.746;2023-08-01T02:48:11;98924.66;;;22.19;83.56
8320;BME280;4197;42.130;24.746;2023-08-01T02:50:39;98926.22;;;22.20;84.03
8320;BME280;4197;42.130;24.746;2023-08-01T02:53:08;98928.50;;;22.22;84.37
8320;BME280;4197;42.130;24.746;2023-08-01T02:55:36;98934.25;;;22.15;84.88
8320;BME280;4197;42.130;24.746;2023-08-01T02:58:05;98940.97;;;22.14;85.36
8320;BME280;4197;42.130;24.746;2023-08-01T03:00:33;98938.78;;;22.21;84.98
8320;BME280;4197;42.130;24.746;2023-08-01T03:03:04;98940.44;;;22.19;83.78
8320;BME280;4197;42.130;24.746;2023-08-01T03:05:35;98948.28;;;22.08;84.98
8320;BME280;4197;42.130;24.746;2023-08-01T03:08:04;98947.31;;;22.01;86.40
8320;BME280;4197;42.130;24.746;2023-08-01T03:10:32;98950.06;;;21.89;87.52
8320;BME280;4197;42.130;24.746;2023-08-01T03:13:03;98954.38;;;21.90;89.60
8320;BME280;4197;42.130;24.746;2023-08-01T03:15:31;98954.38;;;21.90;88.44
8320;BME280;4197;42.130;24.746;2023-08-01T03:18:00;98953.72;;;21.86;88.05
8320;BME280;4197;42.130;24.746;2023-08-01T03:20:30;98960.47;;;21.85;88.43
8320;BME280;4197;42.130;24.746;2023-08-01T03:22:58;98965.66;;;21.82;88.56
8320;BME280;4197;42.130;24.746;2023-08-01T03:25:26;98966.19;;;21.90;88.08
8320;BME280;4197;42.130;24.746;2023-08-01T03:27:58;98961.09;;;21.89;87.61
8320;BME280;4197;42.130;24.746;2023-08-01T03:30:26;98965.44;;;21.90;87.82
8320;BME280;4197;42.130;24.746;2023-08-01T03:32:54;98967.53;;;21.98;88.04
8320;BME280;4197;42.130;24.746;2023-08-01T03:35:23;98965.97;;;22.23;86.04
8320;BME280;4197;42.130;24.746;2023-08-01T03:37:53;98974.47;;;22.29;85.60
8320;BME280;4197;42.130;24.746;2023-08-01T03:40:21;98976.00;;;22.30;85.70
8320;BME280;4197;42.130;24.746;2023-08-01T03:42:49;98973.56;;;22.32;85.49
8320;BME280;4197;42.130;24.746;2023-08-01T03:45:17;98970.06;;;22.31;85.12
8320;BME280;4197;42.130;24.746;2023-08-01T03:47:46;98969.72;;;22.29;85.45
8320;BME280;4197;42.130;24.746;2023-08-01T03:50:14;98970.47;;;22.17;86.98
8320;BME280;4197;42.130;24.746;2023-08-01T03:52:42;98976.44;;;22.15;87.69
8320;BME280;4197;42.130;24.746;2023-08-01T03:55:12;98972.69;;;22.22;87.28
8320;BME280;4197;42.130;24.746;2023-08-01T03:57:40;98983.50;;;22.16;88.82
8320;BME280;4197;42.130;24.746;2023-08-01T04:00:11;98983.19;;;22.27;88.35
8320;BME280;4197;42.130;24.746;2023-08-01T04:02:45;98976.69;;;22.34;87.62
8320;BME280;4197;42.130;24.746;2023-08-01T04:05:15;98980.41;;;22.40;87.19
8320;BME280;4197;42.130;24.746;2023-08-01T04:07:44;98982.84;;;22.38;87.54
8320;BME280;4197;42.130;24.746;2023-08-01T04:10:14;98977.09;;;22.45;85.57
8320;BME280;4197;42.130;24.746;2023-08-01T04:12:43;98980.50;;;22.36;85.66
8320;BME280;4197;42.130;24.746;2023-08-01T04:15:11;98978.63;;;22.46;85.32
8320;BME280;4197;42.130;24.746;2023-08-01T04:17:40;98977.41;;;22.47;85.71
8320;BME280;4197;42.130;24.746;2023-08-01T04:20:09;98983.03;;;22.56;85.00
8320;BME280;4197;42.130;24.746;2023-08-01T04:22:37;98973.56;;;22.66;84.17
8320;BME280;4197;42.130;24.746;2023-08-01T04:25:06;98974.44;;;22.76;82.80
8320;BME280;4197;42.130;24.746;2023-08-01T04:27:36;98967.53;;;22.81;80.79
8320;BME280;4197;42.130;24.746;2023-08-01T04:30:05;98979.06;;;22.79;81.65
8320;BME280;4197;42.130;24.746;2023-08-01T04:32:34;98973.69;;;22.76;81.14
8320;BME280;4197;42.130;24.746;2023-08-01T04:35:02;98982.66;;;22.89;80.39
8320;BME280;4197;42.130;24.746;2023-08-01T04:37:31;98978.03;;;22.99;79.42
8320;BME280;4197;42.130;24.746;2023-08-01T04:39:59;98988.38;;;22.94;80.22
8320;BME280;4197;42.130;24.746;2023-08-01T04:42:28;98983.56;;;22.86;81.27
8320;BME280;4197;42.130;24.746;2023-08-01T04:44:58;98984.06;;;23.06;80.44
8320;BME280;4197;42.130;24.746;2023-08-01T04:47:26;98983.56;;;23.21;78.76
8320;BME280;4197;42.130;24.746;2023-08-01T04:49:54;98989.03;;;23.33;78.97
8320;BME280;4197;42.130;24.746;2023-08-01T04:52:23;98984.22;;;23.78;75.76
8320;BME280;4197;42.130;24.746;2023-08-01T04:54:51;98987.66;;;24.00;74.10
8320;BME280;4197;42.130;24.746;2023-08-01T04:57:19;98975.88;;;24.27;71.84
8320;BME280;4197;42.130;24.746;2023-08-01T04:59:47;98982.88;;;24.51;68.35
8320;BME280;4197;42.130;24.746;2023-08-01T05:02:17;98979.97;;;24.54;68.84
8320;BME280;4197;42.130;24.746;2023-08-01T05:04:46;98985.66;;;24.60;67.84
8320;BME280;4197;42.130;24.746;2023-08-01T05:07:14;98984.75;;;24.72;67.05
8320;BME280;4197;42.130;24.746;2023-08-01T05:09:42;98990.59;;;24.56;68.93
8320;BME280;4197;42.130;24.746;2023-08-01T05:12:11;98992.44;;;24.59;68.61
8320;BME280;4197;42.130;24.746;2023-08-01T05:14:39;98987.16;;;24.42;70.07
8320;BME280;4197;42.130;24.746;2023-08-01T05:17:07;98992.28;;;24.53;69.92
8320;BME280;4197;42.130;24.746;2023-08-01T05:19:37;98987.81;;;24.74;68.69
8320;BME280;4197;42.130;24.746;2023-08-01T05:22:05;98994.63;;;24.91;67.42
8320;BME280;4197;42.130;24.746;2023-08-01T05:24:33;98997.06;;;24.99;67.18
8320;BME280;4197;42.130;24.746;2023-08-01T05:27:02;98996.44;;;25.04;67.35
8320;BME280;4197;42.130;24.746;2023-08-01T05:29:31;98992.44;;;25.14;65.24
8320;BME280;4197;42.130;24.746;2023-08-01T05:31:59;98991.66;;;25.13;65.78
8320;BME280;4197;42.130;24.746;2023-08-01T05:34:27;98996.91;;;25.21;64.43
8320;BME280;4197;42.130;24.746;2023-08-01T05:36:57;98999.81;;;25.45;63.24
8320;BME280;4197;42.130;24.746;2023-08-01T05:39:26;98999.91;;;25.59;62.53
8320;BME280;4197;42.130;24.746;2023-08-01T05:41:54;98993.91;;;25.61;62.83
8320;BME280;4197;42.130;24.746;2023-08-01T05:44:22;99005.25;;;25.81;62.21
8320;BME280;4197;42.130;24.746;2023-08-01T05:46:50;99006.47;;;25.90;62.48
8320;BME280;4197;42.130;24.746;2023-08-01T05:49:18;99001.63;;;25.99;62.70
8320;BME280;4197;42.130;24.746;2023-08-01T05:51:47;99002.31;;;26.18;60.31
8320;BME280;4197;42.130;24.746;2023-08-01T05:54:17;99007.00;;;26.36;59.61
8320;BME280;4197;42.130;24.746;2023-08-01T05:56:45;99007.53;;;26.25;59.38
8320;BME280;4197;42.130;24.746;2023-08-01T05:59:14;98997.38;;;26.22;60.27
8320;BME280;4197;42.130;24.746;2023-08-01T06:01:42;99003.63;;;26.32;60.59
8320;BME280;4197;42.130;24.746;2023-08-01T06:04:11;99012.19;;;26.43;59.59
8320;BME280;4197;42.130;24.746;2023-08-01T06:06:39;99003.09;;;26.43;58.37
8320;BME280;4197;42.130;24.746;2023-08-01T06:09:08;99003.34;;;26.30;57.11
8320;BME280;4197;42.130;24.746;2023-08-01T06:11:37;99001.34;;;26.31;57.96
8320;BME280;4197;42.130;24.746;2023-08-01T06:14:06;99002.34;;;26.42;55.62
8320;BME280;4197;42.130;24.746;2023-08-01T06:16:34;99004.53;;;26.38;55.76
8320;BME280;4197;42.130;24.746;2023-08-01T06:19:02;98998.56;;;26.31;56.26
8320;BME280;4197;42.130;24.746;2023-08-01T06:21:31;98991.09;;;26.37;55.70
8320;BME280;4197;42.130;24.746;2023-08-01T06:23:59;98987.06;;;26.38;55.52
8320;BME280;4197;42.130;24.746;2023-08-01T06:26:27;98992.34;;;26.36;54.48
8320;BME280;4197;42.130;24.746;2023-08-01T06:28:57;98989.72;;;26.32;54.46
8320;BME280;4197;42.130;24.746;2023-08-01T06:31:25;98984.47;;;26.34;55.22
8320;BME280;4197;42.130;24.746;2023-08-01T06:33:54;98991.16;;;26.28;55.24
8320;BME280;4197;42.130;24.746;2023-08-01T06:36:22;98985.88;;;26.30;55.22
8320;BME280;4197;42.130;24.746;2023-08-01T06:38:50;98990.41;;;26.51;54.53
8320;BME280;4197;42.130;24.746;2023-08-01T06:41:19;98992.47;;;26.65;53.72
8320;BME280;4197;42.130;24.746;2023-08-01T06:43:47;98994.50;;;26.80;53.21
8320;BME280;4197;42.130;24.746;2023-08-01T06:46:16;98988.13;;;26.88;52.13
8320;BME280;4197;42.130;24.746;2023-08-01T06:48:45;98984.53;;;26.73;53.29
8320;BME280;4197;42.130;24.746;2023-08-01T06:51:13;98980.91;;;26.82;53.09
8320;BME280;4197;42.130;24.746;2023-08-01T06:53:41;98988.69;;;26.92;52.64
8320;BME280;4197;42.130;24.746;2023-08-01T06:56:12;98986.97;;;26.95;50.80
8320;BME280;4197;42.130;24.746;2023-08-01T06:58:40;98985.72;;;26.96;51.71
8320;BME280;4197;42.130;24.746;2023-08-01T07:01:09;98977.38;;;26.96;50.27
8320;BME280;4197;42.130;24.746;2023-08-01T07:03:39;98978.44;;;26.99;50.21
8320;BME280;4197;42.130;24.746;2023-08-01T07:06:07;98981.81;;;27.03;50.05
8320;BME280;4197;42.130;24.746;2023-08-01T07:08:35;98980.38;;;27.07;49.19
8320;BME280;4197;42.130;24.746;2023-08-01T07:11:03;98977.97;;;27.00;49.39
8320;BME280;4197;42.130;24.746;2023-08-01T07:13:32;98975.28;;;27.06;48.87
8320;BME280;4197;42.130;24.746;2023-08-01T07:16:00;98978.84;;;27.06;49.59
8320;BME280;4197;42.130;24.746;2023-08-01T07:18:29;98985.00;;;27.10;48.28
8320;BME280;4197;42.130;24.746;2023-08-01T07:21:02;98985.16;;;26.92;48.92
8320;BME280;4197;42.130;24.746;2023-08-01T07:23:31;98985.47;;;26.94;48.67
8320;BME280;4197;42.130;24.746;2023-08-01T07:25:59;98978.63;;;26.95;48.75
8320;BME280;4197;42.130;24.746;2023-08-01T07:28:27;98980.09;;;27.05;47.87
8320;BME280;4197;42.130;24.746;2023-08-01T07:30:59;98969.63;;;27.15;48.19
8320;BME280;4197;42.130;24.746;2023-08-01T07:33:28;98965.28;;;27.38;48.01
8320;BME280;4197;42.130;24.746;2023-08-01T07:35:56;98959.28;;;27.45;48.71
8320;BME280;4197;42.130;24.746;2023-08-01T07:38:26;98965.72;;;27.51;48.57
8320;BME280;4197;42.130;24.746;2023-08-01T07:40:55;98961.03;;;27.43;48.17
8320;BME280;4197;42.130;24.746;2023-08-01T07:43:25;98965.53;;;27.40;48.85
8320;BME280;4197;42.130;24.746;2023-08-01T07:45:55;98957.59;;;27.33;48.41
8320;BME280;4197;42.130;24.746;2023-08-01T07:48:24;98955.47;;;27.28;49.00
8320;BME280;4197;42.130;24.746;2023-08-01T07:50:52;98948.66;;;27.44;48.35
8320;BME280;4197;42.130;24.746;2023-08-01T07:53:20;98954.50;;;27.46;48.57
8320;BME280;4197;42.130;24.746;2023-08-01T07:55:51;98952.75;;;27.48;48.40
8320;BME280;4197;42.130;24.746;2023-08-01T07:58:20;98949.88;;;27.57;47.99
8320;BME280;4197;42.130;24.746;2023-08-01T08:00:48;98958.28;;;27.78;47.39
8320;BME280;4197;42.130;24.746;2023-08-01T08:03:17;98951.66;;;27.90;47.01
8320;BME280;4197;42.130;24.746;2023-08-01T08:05:45;98949.59;;;28.06;47.07
8320;BME280;4197;42.130;24.746;2023-08-01T08:08:14;98950.03;;;28.19;46.15
8320;BME280;4197;42.130;24.746;2023-08-01T08:10:42;98937.75;;;28.11;46.59
8320;BME280;4197;42.130;24.746;2023-08-01T08:13:12;98940.13;;;28.18;46.23
8320;BME280;4197;42.130;24.746;2023-08-01T08:15:41;98943.91;;;28.35;45.90
8320;BME280;4197;42.130;24.746;2023-08-01T08:18:09;98937.69;;;28.46;45.25
8320;BME280;4197;42.130;24.746;2023-08-01T08:20:41;98924.50;;;28.67;45.36
8320;BME280;4197;42.130;24.746;2023-08-01T08:23:10;98937.47;;;28.70;45.26
8320;BME280;4197;42.130;24.746;2023-08-01T08:25:41;98928.69;;;28.77;44.95
8320;BME280;4197;42.130;24.746;2023-08-01T08:28:13;98931.78;;;28.59;45.19
8320;BME280;4197;42.130;24.746;2023-08-01T08:30:41;98923.63;;;28.55;45.43
8320;BME280;4197;42.130;24.746;2023-08-01T08:33:19;98920.91;;;28.61;44.73
8320;BME280;4197;42.130;24.746;2023-08-01T08:35:47;98917.25;;;28.75;44.53
8320;BME280;4197;42.130;24.746;2023-08-01T08:38:17;98917.59;;;28.83;44.23
8320;BME280;4197;42.130;24.746;2023-08-01T08:40:52;98915.84;;;28.85;44.39
8320;BME280;4197;42.130;24.746;2023-08-01T08:43:26;98914.56;;;28.86;44.60
8320;BME280;4197;42.130;24.746;2023-08-01T08:45:57;98919.72;;;28.94;44.16
8320;BME280;4197;42.130;24.746;2023-08-01T08:48:28;98916.75;;;29.03;44.27
8320;BME280;4197;42.130;24.746;2023-08-01T08:50:57;98923.28;;;29.20;43.62
8320;BME280;4197;42.130;24.746;2023-08-01T08:53:27;98911.44;;;29.31;43.21
8320;BME280;4197;42.130;24.746;2023-08-01T08:55:56;98898.22;;;29.31;43.07
8320;BME280;4197;42.130;24.746;2023-08-01T08:58:26;98902.78;;;29.29;43.25
8320;BME280;4197;42.130;24.746;2023-08-01T09:00:54;98897.25;;;29.34;43.31
8320;BME280;4197;42.130;24.746;2023-08-01T09:03:22;98897.44;;;29.25;42.73
8320;BME280;4197;42.130;24.746;2023-08-01T09:06:00;98896.84;;;29.16;43.50
8320;BME280;4197;42.130;24.746;2023-08-01T09:08:32;98887.44;;;29.13;42.57
8320;BME280;4197;42.130;24.746;2023-08-01T09:11:03;98892.03;;;29.16;42.98
8320;BME280;4197;42.130;24.746;2023-08-01T09:13:33;98886.69;;;29.18;42.99
8320;BME280;4197;42.130;24.746;2023-08-01T09:16:02;98878.19;;;29.33;42.25
8320;BME280;4197;42.130;24.746;2023-08-01T09:18:33;98884.53;;;29.33;42.27
8320;BME280;4197;42.130;24.746;2023-08-01T09:21:01;98875.59;;;29.24;42.24
8320;BME280;4197;42.130;24.746;2023-08-01T09:23:30;98881.06;;;29.44;42.01
8320;BME280;4197;42.130;24.746;2023-08-01T09:25:59;98867.94;;;29.56;41.71
8320;BME280;4197;42.130;24.746;2023-08-01T09:28:27;98878.44;;;29.67;41.29
8320;BME280;4197;42.130;24.746;2023-08-01T09:30:57;98874.91;;;29.66;41.13
8320;BME280;4197;42.130;24.746;2023-08-01T09:33:25;98872.03;;;29.61;41.21
8320;BME280;4197;42.130;24.746;2023-08-01T09:35:54;98873.09;;;29.31;41.53
8320;BME280;4197;42.130;24.746;2023-08-01T09:38:22;98863.69;;;29.29;42.23
8320;BME280;4197;42.130;24.746;2023-08-01T09:40:52;98863.34;;;29.53;40.83
8320;BME280;4197;42.130;24.746;2023-08-01T09:43:20;98859.28;;;29.54;41.46
8320;BME280;4197;42.130;24.746;2023-08-01T09:45:50;98861.22;;;29.74;41.70
8320;BME280;4197;42.130;24.746;2023-08-01T09:48:24;98860.22;;;29.77;40.88
8320;BME280;4197;42.130;24.746;2023-08-01T09:51:04;98846.31;;;29.88;39.81
8320;BME280;4197;42.130;24.746;2023-08-01T09:53:33;98836.91;;;29.91;40.33
8320;BME280;4197;42.130;24.746;2023-08-01T09:56:02;98838.28;;;30.18;40.45
8320;BME280;4197;42.130;24.746;2023-08-01T09:58:33;98843.72;;;30.39;40.69
8320;BME280;4197;42.130;24.746;2023-08-01T10:01:03;98836.91;;;30.62;39.92
8320;BME280;4197;42.130;24.746;2023-08-01T10:03:33;98838.94;;;30.79;39.38
8320;BME280;4197;42.130;24.746;2023-08-01T10:06:03;98843.50;;;30.71;40.75
8320;BME280;4197;42.130;24.746;2023-08-01T10:08:34;98828.78;;;30.87;39.77
8320;BME280;4197;42.130;24.746;2023-08-01T10:11:04;98830.00;;;30.52;40.90
8320;BME280;4197;42.130;24.746;2023-08-01T10:13:32;98827.16;;;30.30;41.33
8320;BME280;4197;42.130;24.746;2023-08-01T10:16:01;98823.63;;;30.35;41.95
8320;BME280;4197;42.130;24.746;2023-08-01T10:18:30;98823.13;;;30.59;42.16
8320;BME280;4197;42.130;24.746;2023-08-01T10:21:01;98814.53;;;30.74;41.23
8320;BME280;4197;42.130;24.746;2023-08-01T10:23:30;98817.84;;;30.89;41.26
8320;BME280;4197;42.130;24.746;2023-08-01T10:26:00;98816.06;;;31.08;40.69
8320;BME280;4197;42.130;24.746;2023-08-01T10:28:33;98809.94;;;31.16;40.08
8320;BME280;4197;42.130;24.746;2023-08-01T10:31:12;98794.94;;;31.02;39.96
8320;BME280;4197;42.130;24.746;2023-08-01T10:33:42;98797.75;;;30.96;39.46
8320;BME280;4197;42.130;24.746;2023-08-01T10:36:16;98803.06;;;30.66;39.67
8320;BME280;4197;42.130;24.746;2023-08-01T10:38:48;98792.59;;;30.38;40.10
8320;BME280;4197;42.130;24.746;2023-08-01T10:41:25;98791.56;;;30.30;40.49
8320;BME280;4197;42.130;24.746;2023-08-01T10:44:04;98784.72;;;30.54;40.86
8320;BME280;4197;42.130;24.746;2023-08-01T10:46:46;98786.53;;;30.74;41.14
8320;BME280;4197;42.130;24.746;2023-08-01T10:49:15;98773.06;;;30.95;40.73
8320;BME280;4197;42.130;24.746;2023-08-01T10:51:45;98767.41;;;31.17;40.35
8320;BME280;4197;42.130;24.746;2023-08-01T10:54:23;98758.22;;;31.39;39.62
8320;BME280;4197;42.130;24.746;2023-08-01T10:56:53;98758.72;;;31.49;39.73
8320;BME280;4197;42.130;24.746;2023-08-01T10:59:22;98757.19;;;31.48;40.28
8320;BME280;4197;42.130;24.746;2023-08-01T11:01:52;98758.47;;;31.41;40.30
8320;BME280;4197;42.130;24.746;2023-08-01T11:04:22;98760.50;;;31.52;39.45
8320;BME280;4197;42.130;24.746;2023-08-01T11:06:54;98757.69;;;31.52;39.15
8320;BME280;4197;42.130;24.746;2023-08-01T11:09:25;98750.84;;;31.36;39.85
8320;BME280;4197;42.130;24.746;2023-08-01T11:11:54;98741.66;;;31.36;39.68
8320;BME280;4197;42.130;24.746;2023-08-01T11:14:25;98737.59;;;31.37;38.58
8320;BME280;4197;42.130;24.746;2023-08-01T11:16:54;98735.31;;;31.29;39.02
8320;BME280;4197;42.130;24.746;2023-08-01T11:19:24;98733.81;;;31.11;40.11
8320;BME280;4197;42.130;24.746;2023-08-01T11:21:55;98727.50;;;30.94;40.51
8320;BME280;4197;42.130;24.746;2023-08-01T11:24:25;98714.47;;;31.14;40.96
8320;BME280;4197;42.130;24.746;2023-08-01T11:26:54;98722.06;;;31.36;39.70
8320;BME280;4197;42.130;24.746;2023-08-01T11:29:22;98714.97;;;31.18;39.48
8320;BME280;4197;42.130;24.746;2023-08-01T11:31:54;98712.47;;;31.08;39.65
8320;BME280;4197;42.130;24.746;2023-08-01T11:34:23;98710.19;;;30.90;40.23
8320;BME280;4197;42.130;24.746;2023-08-01T11:36:53;98701.53;;;31.05;40.28
8320;BME280;4197;42.130;24.746;2023-08-01T11:39:22;98699.97;;;31.21;39.89
8320;BME280;4197;42.130;24.746;2023-08-01T11:41:50;98700.38;;;31.47;39.44
8320;BME280;4197;42.130;24.746;2023-08-01T11:44:23;98699.50;;;31.75;39.31
8320;BME280;4197;42.130;24.746;2023-08-01T11:46:52;98696.63;;;31.86;37.72
8320;BME280;4197;42.130;24.746;2023-08-01T11:49:20;98686.72;;;31.80;38.17
8320;BME280;4197;42.130;24.746;2023-08-01T11:51:48;98690.25;;;31.39;39.11
8320;BME280;4197;42.130;24.746;2023-08-01T11:54:18;98689.47;;;31.32;39.65
8320;BME280;4197;42.130;24.746;2023-08-01T11:56:48;98689.97;;;31.37;38.90
8320;BME280;4197;42.130;24.746;2023-08-01T11:59:17;98689.91;;;31.53;39.04
8320;BME280;4197;42.130;24.746;2023-08-01T12:01:47;98678.56;;;31.76;38.88
8320;BME280;4197;42.130;24.746;2023-08-01T12:04:24;98673.25;;;31.72;39.61
8320;BME280;4197;42.130;24.746;2023-08-01T12:06:52;98676.22;;;31.91;38.59
8320;BME280;4197;42.130;24.746;2023-08-01T12:09:21;98676.03;;;31.78;38.22
8320;BME280;4197;42.130;24.746;2023-08-01T12:11:58;98676.19;;;31.50;38.45
8320;BME280;4197;42.130;24.746;2023-08-01T12:14:26;98669.56;;;31.47;38.64
8320;BME280;4197;42.130;24.746;2023-08-01T12:16:55;98666.00;;;31.47;39.03
8320;BME280;4197;42.130;24.746;2023-08-01T12:19:23;98662.13;;;31.55;38.84
8320;BME280;4197;42.130;24.746;2023-08-01T12:21:51;98666.75;;;31.47;38.26
8320;BME280;4197;42.130;24.746;2023-08-01T12:24:21;98664.78;;;31.31;39.37
8320;BME280;4197;42.130;24.746;2023-08-01T12:26:49;98646.69;;;31.32;39.10
8320;BME280;4197;42.130;24.746;2023-08-01T12:29:18;98655.50;;;31.59;38.34
8320;BME280;4197;42.130;24.746;2023-08-01T12:31:46;98642.69;;;31.74;38.70
8320;BME280;4197;42.130;24.746;2023-08-01T12:34:14;98644.84;;;31.98;38.75
8320;BME280;4197;42.130;24.746;2023-08-01T12:36:42;98642.63;;;32.21;37.63
8320;BME280;4197;42.130;24.746;2023-08-01T12:39:11;98639.19;;;32.04;37.11
8320;BME280;4197;42.130;24.746;2023-08-01T12:41:41;98648.47;;;31.88;37.58
8320;BME280;4197;42.130;24.746;2023-08-01T12:44:09;98634.88;;;31.56;38.55
8320;BME280;4197;42.130;24.746;2023-08-01T12:46:37;98640.03;;;31.88;38.88
8320;BME280;4197;42.130;24.746;2023-08-01T12:49:06;98635.81;;;32.11;37.66
8320;BME280;4197;42.130;24.746;2023-08-01T12:51:34;98633.09;;;32.30;37.32
8320;BME280;4197;42.130;24.746;2023-08-01T12:54:03;98633.19;;;32.19;36.99
8320;BME280;4197;42.130;24.746;2023-08-01T12:56:31;98628.44;;;32.08;36.57
8320;BME280;4197;42.130;24.746;2023-08-01T12:59:01;98624.22;;;31.96;37.39
8320;BME280;4197;42.130;24.746;2023-08-01T13:01:29;98617.63;;;31.88;37.50
8320;BME280;4197;42.130;24.746;2023-08-01T13:03:59;98620.38;;;31.99;37.14
8320;BME280;4197;42.130;24.746;2023-08-01T13:06:27;98616.81;;;31.98;36.62
8320;BME280;4197;42.130;24.746;2023-08-01T13:08:56;98617.22;;;32.08;36.35
8320;BME280;4197;42.130;24.746;2023-08-01T13:11:29;98616.88;;;31.87;36.95
8320;BME280;4197;42.130;24.746;2023-08-01T13:13:57;98612.72;;;31.99;36.98
8320;BME280;4197;42.130;24.746;2023-08-01T13:16:27;98597.84;;;32.10;37.14
8320;BME280;4197;42.130;24.746;2023-08-01T13:18:55;98601.19;;;32.03;36.79
8320;BME280;4197;42.130;24.746;2023-08-01T13:21:23;98598.22;;;31.95;37.20